createdAt,value
2022-12-19T00:01:43.581Z,100843.66
2022-12-19T00:04:51.188Z,100835.00
2022-12-19T00:07:56.435Z,100842.13
2022-12-19T00:11:04.218Z,100838.00
2022-12-19T00:14:09.670Z,100845.06
2022-12-19T00:17:14.640Z,100829.72
2022-12-19T00:20:22.132Z,100818.44
2022-12-19T00:23:27.045Z,100823.88
2022-12-19T00:26:33.427Z,100825.13
2022-12-19T00:29:38.368Z,100833.19
2022-12-19T00:32:43.241Z,100839.22
2022-12-19T00:35:50.679Z,100823.88
2022-12-19T00:38:56.873Z,100817.47
2022-12-19T00:42:01.677Z,100803.00
2022-12-19T00:45:07.027Z,100806.75
2022-12-19T00:48:11.848Z,100809.38
2022-12-19T00:51:23.776Z,100812.47
2022-12-19T00:54:29.112Z,100794.88
2022-12-19T00:57:34.417Z,100800.91
2022-12-19T01:00:39.317Z,100809.19
2022-12-19T01:04:11.296Z,100807.50
2022-12-19T01:07:14.904Z,100796.56
2022-12-19T01:10:19.964Z,100801.84
2022-12-19T01:13:23.407Z,100788.47
2022-12-19T01:16:28.373Z,100784.63
2022-12-19T01:19:33.265Z,100787.88
2022-12-19T01:22:40.780Z,100786.97
2022-12-19T01:25:51.413Z,100795.44
2022-12-19T01:28:56.229Z,100795.59
2022-12-19T01:32:01.155Z,100805.78
2022-12-19T01:35:06.599Z,100795.41
2022-12-19T01:38:19.415Z,100788.00
2022-12-19T01:41:24.246Z,100791.06
2022-12-19T01:44:29.529Z,100813.03
2022-12-19T01:47:36.104Z,100811.59
2022-12-19T01:50:48.150Z,100797.09
2022-12-19T01:54:10.732Z,100791.06
2022-12-19T01:57:18.542Z,100793.69
2022-12-19T02:00:23.742Z,100782.97
2022-12-19T02:03:31.487Z,100790.41
2022-12-19T02:06:37.914Z,100789.00
2022-12-19T02:09:47.159Z,100791.63
2022-12-19T02:12:55.585Z,100778.53
2022-12-19T02:16:11.223Z,100800.84
2022-12-19T02:19:51.119Z,100782.97
2022-12-19T02:23:15.281Z,100771.88
2022-12-19T02:26:47.984Z,100752.88
2022-12-19T02:30:11.891Z,100770.34
2022-12-19T02:33:24.156Z,100767.81
2022-12-19T02:36:38.992Z,100752.56
2022-12-19T02:39:51.876Z,100730.03
2022-12-19T02:43:02.455Z,100725.88
2022-12-19T02:46:09.346Z,100727.56
2022-12-19T02:49:20.999Z,100732.84
2022-12-19T02:52:49.029Z,100728.63
2022-12-19T02:56:03.562Z,100738.63
2022-12-19T02:59:25.989Z,100752.06
2022-12-19T03:02:37.731Z,100757.53
2022-12-19T03:05:56.369Z,100758.56
2022-12-19T03:09:11.232Z,100749.06
2022-12-19T03:12:23.799Z,100750.16
2022-12-19T03:15:30.594Z,100745.09
2022-12-19T03:18:36.708Z,100736.84
2022-12-19T03:21:47.071Z,100735.19
2022-12-19T03:24:51.905Z,100736.00
2022-12-19T03:27:59.566Z,100738.13
2022-12-19T03:31:06.467Z,100738.63
2022-12-19T03:34:16.806Z,100743.06
2022-12-19T03:37:28.273Z,100739.59
2022-12-19T03:40:37.738Z,100735.81
2022-12-19T03:43:42.837Z,100751.00
2022-12-19T03:46:55.930Z,100743.63
2022-12-19T03:50:01.018Z,100739.03
2022-12-19T03:53:18.742Z,100734.81
2022-12-19T03:56:34.008Z,100748.53
2022-12-19T03:59:43.887Z,100757.06
2022-12-19T04:02:52.771Z,100744.97
2022-12-19T04:05:58.965Z,100743.88
2022-12-19T04:09:07.118Z,100747.44
2022-12-19T04:12:16.754Z,100755.28
2022-12-19T04:15:27.078Z,100740.28
2022-12-19T04:18:33.214Z,100735.59
2022-12-19T04:21:44.182Z,100712.84
2022-12-19T04:24:55.595Z,100720.47
2022-12-19T04:28:04.778Z,100727.25
2022-12-19T04:31:11.001Z,100712.56
2022-12-19T04:34:15.949Z,100715.41
2022-12-19T04:37:20.952Z,100723.22
2022-12-19T04:40:28.701Z,100723.31
2022-12-19T04:43:33.570Z,100719.09
2022-12-19T04:46:38.431Z,100711.16
2022-12-19T04:49:43.271Z,100731.88
2022-12-19T04:52:48.243Z,100729.97
2022-12-19T04:56:03.358Z,100722.56
2022-12-19T04:59:08.236Z,100725.56
2022-12-19T05:02:13.212Z,100717.75
2022-12-19T05:05:19.093Z,100704.13
2022-12-19T05:08:23.968Z,100710.97
2022-12-19T05:11:31.516Z,100709.28
2022-12-19T05:14:36.589Z,100702.31
2022-12-19T05:17:41.444Z,100691.34
2022-12-19T05:20:46.365Z,100692.63
2022-12-19T05:23:52.210Z,100687.75
2022-12-19T05:26:59.636Z,100679.34
2022-12-19T05:30:04.492Z,100668.13
2022-12-19T05:33:09.468Z,100665.81
2022-12-19T05:36:15.563Z,100667.09
2022-12-19T05:39:20.426Z,100664.97
2022-12-19T05:42:28.878Z,100671.72
2022-12-19T05:45:33.708Z,100679.41
2022-12-19T05:48:39.307Z,100680.06
2022-12-19T05:51:44.097Z,100671.59
2022-12-19T05:54:48.955Z,100680.06
2022-12-19T05:57:56.512Z,100684.41
2022-12-19T06:01:05.565Z,100682.81
2022-12-19T06:04:10.683Z,100681.00
2022-12-19T06:07:20.732Z,100679.75
2022-12-19T06:10:26.240Z,100691.69
2022-12-19T06:13:36.800Z,100674.69
2022-12-19T06:16:41.671Z,100671.94
2022-12-19T06:19:47.300Z,100668.56
2022-12-19T06:22:52.153Z,100657.91
2022-12-19T06:26:00.300Z,100665.38
2022-12-19T06:29:07.793Z,100672.59
2022-12-19T06:32:12.916Z,100669.22
2022-12-19T06:35:17.932Z,100675.94
2022-12-19T06:38:22.801Z,100662.13
2022-12-19T06:41:40.627Z,100665.19
2022-12-19T06:44:48.121Z,100678.59
2022-12-19T06:47:53.008Z,100674.56
2022-12-19T06:50:58.123Z,100671.50
2022-12-19T06:54:03.316Z,100662.88
2022-12-19T06:57:08.221Z,100667.94
2022-12-19T07:00:17.212Z,100660.75
2022-12-19T07:03:25.894Z,100668.03
2022-12-19T07:06:31.522Z,100659.47
2022-12-19T07:09:37.619Z,100652.81
2022-12-19T07:12:42.426Z,100663.06
2022-12-19T07:15:50.519Z,100653.78
2022-12-19T07:18:55.414Z,100673.00
2022-12-19T07:22:01.902Z,100669.41
2022-12-19T07:25:08.921Z,100669.63
2022-12-19T07:28:13.970Z,100658.53
2022-12-19T07:31:21.427Z,100665.41
2022-12-19T07:34:26.308Z,100664.72
2022-12-19T07:37:31.175Z,100670.00
2022-12-19T07:40:36.596Z,100667.69
2022-12-19T07:43:41.429Z,100679.72
2022-12-19T07:46:49.062Z,100661.78
2022-12-19T07:49:54.095Z,100675.59
2022-12-19T07:53:00.040Z,100676.34
2022-12-19T07:56:04.963Z,100662.47
2022-12-19T07:59:10.107Z,100670.81
2022-12-19T08:02:17.651Z,100678.72
2022-12-19T08:05:23.174Z,100674.22
2022-12-19T08:08:28.074Z,100666.59
2022-12-19T08:11:33.015Z,100676.72
2022-12-19T08:14:37.807Z,100672.94
2022-12-19T08:17:45.295Z,100676.41
2022-12-19T08:20:50.121Z,100677.75
2022-12-19T08:23:54.923Z,100680.97
2022-12-19T08:26:59.940Z,100691.44
2022-12-19T08:30:04.928Z,100672.31
2022-12-19T08:33:12.574Z,100683.91
2022-12-19T08:36:19.142Z,100691.19
2022-12-19T08:39:24.011Z,100699.47
2022-12-19T08:42:28.830Z,100704.25
2022-12-19T08:45:33.728Z,100697.06
2022-12-19T08:48:41.143Z,100703.03
2022-12-19T08:51:46.061Z,100689.81
2022-12-19T08:54:51.214Z,100671.44
2022-12-19T08:57:56.131Z,100664.25
2022-12-19T09:01:05.486Z,100656.97
2022-12-19T09:05:28.503Z,100669.28
2022-12-19T09:07:39.990Z,100655.16
2022-12-19T09:10:44.895Z,100654.53
2022-12-19T09:13:51.763Z,100657.97
2022-12-19T09:16:56.645Z,100666.41
2022-12-19T09:20:06.989Z,100655.97
2022-12-19T09:23:11.796Z,100660.53
2022-12-19T09:26:17.228Z,100662.38
2022-12-19T09:29:22.477Z,100660.84
2022-12-19T09:32:27.429Z,100653.53
2022-12-19T09:35:34.875Z,100652.66
2022-12-19T09:38:39.692Z,100657.09
2022-12-19T09:42:08.442Z,100655.41
2022-12-19T09:45:31.559Z,100652.94
2022-12-19T09:48:38.108Z,100650.34
2022-12-19T09:51:52.851Z,100653.25
2022-12-19T09:55:04.949Z,100641.31
2022-12-19T09:58:16.280Z,100641.22
2022-12-19T10:01:25.274Z,100642.91
2022-12-19T10:04:33.190Z,100644.59
2022-12-19T10:08:05.452Z,100650.72
2022-12-19T10:12:39.024Z,100649.03
2022-12-19T10:14:50.965Z,100647.34
2022-12-19T10:18:18.856Z,100635.31
2022-12-19T10:22:17.247Z,100643.97
2022-12-19T10:25:18.924Z,100644.81
2022-12-19T10:28:48.216Z,100637.59
2022-12-19T10:32:01.202Z,100636.16
2022-12-19T10:35:15.677Z,100636.28
2022-12-19T10:38:27.397Z,100628.91
2022-12-19T10:41:40.726Z,100627.94
2022-12-19T10:44:50.599Z,100620.41
2022-12-19T10:48:00.388Z,100613.72
2022-12-19T10:51:06.692Z,100616.84
2022-12-19T10:54:12.645Z,100607.75
2022-12-19T10:57:28.373Z,100613.00
2022-12-19T11:00:33.331Z,100602.19
2022-12-19T11:03:38.962Z,100590.38
2022-12-19T11:06:52.958Z,100585.91
2022-12-19T11:10:05.321Z,100586.97
2022-12-19T11:20:38.196Z,100584.50
2022-12-19T11:24:42.809Z,100568.66
2022-12-19T11:29:30.352Z,100555.47
2022-12-19T11:29:39.637Z,100570.19
2022-12-19T11:29:46.979Z,100571.31
2022-12-19T11:34:35.781Z,100547.84
2022-12-19T11:37:46.818Z,100561.72
2022-12-19T11:40:55.605Z,100547.63
2022-12-19T11:44:04.890Z,100544.22
2022-12-19T11:47:24.776Z,100533.09
2022-12-19T11:50:32.931Z,100530.81
2022-12-19T11:53:48.867Z,100520.88
2022-12-19T11:56:53.750Z,100524.84
2022-12-19T12:00:04.628Z,100524.75
2022-12-19T12:03:32.173Z,100541.00
2022-12-19T12:06:45.299Z,100518.28
2022-12-19T12:13:17.277Z,100529.91
2022-12-19T12:22:14.676Z,100523.25
2022-12-19T12:30:05.550Z,100521.78
2022-12-19T12:31:23.085Z,100530.34
2022-12-19T12:31:38.991Z,100526.06
2022-12-19T12:31:52.361Z,100511.97
2022-12-19T12:35:42.531Z,100507.69
2022-12-19T12:39:06.933Z,100509.59
2022-12-19T12:42:26.135Z,100502.25
2022-12-19T12:45:38.029Z,100494.03
2022-12-19T12:48:50.464Z,100488.03
2022-12-19T12:51:56.282Z,100489.25
2022-12-19T12:55:06.075Z,100489.84
2022-12-19T12:58:48.810Z,100485.19
2022-12-19T13:02:00.288Z,100488.06
2022-12-19T13:05:26.663Z,100482.28
2022-12-19T13:08:42.717Z,100484.53
2022-12-19T13:12:06.055Z,100475.72
2022-12-19T13:15:43.249Z,100470.56
2022-12-19T13:19:11.534Z,100474.53
2022-12-19T13:22:44.023Z,100468.72
2022-12-19T13:25:53.166Z,100451.06
2022-12-19T13:29:29.680Z,100457.44
2022-12-19T13:32:56.413Z,100457.16
2022-12-19T13:39:49.476Z,100470.34
2022-12-19T13:39:59.187Z,100461.50
2022-12-19T13:43:18.362Z,100453.81
2022-12-19T13:46:41.687Z,100455.47
2022-12-19T13:49:47.511Z,100449.22
2022-12-19T13:52:53.009Z,100452.41
2022-12-19T13:55:59.109Z,100455.91
2022-12-19T13:59:07.676Z,100461.63
2022-12-19T14:02:20.945Z,100442.25
2022-12-19T14:06:15.153Z,100444.66
2022-12-19T14:11:26.223Z,100444.19
2022-12-19T14:13:48.268Z,100461.41
2022-12-19T14:16:08.905Z,100448.31
2022-12-19T14:19:24.564Z,100445.63
2022-12-19T14:22:29.410Z,100439.22
2022-12-19T14:28:20.205Z,100437.03
2022-12-19T14:29:08.557Z,100442.09
2022-12-19T14:33:39.551Z,100450.97
2022-12-19T14:36:08.442Z,100450.22
2022-12-19T14:39:28.460Z,100445.50
2022-12-19T14:43:56.815Z,100450.84
2022-12-19T14:54:01.754Z,100452.28
2022-12-19T14:54:12.044Z,100443.38
2022-12-19T14:54:41.912Z,100450.63
2022-12-19T14:56:59.919Z,100449.19
2022-12-19T15:01:09.680Z,100459.47
2022-12-19T15:04:47.812Z,100444.53
2022-12-19T15:07:24.853Z,100454.66
2022-12-19T15:11:04.352Z,100456.22
2022-12-19T15:14:53.854Z,100447.31
2022-12-19T15:17:28.629Z,100458.63
2022-12-19T15:20:33.514Z,100443.56
2022-12-19T15:23:38.466Z,100442.50
2022-12-19T15:26:50.335Z,100433.81
2022-12-19T15:29:55.237Z,100433.94
2022-12-19T15:33:00.055Z,100430.00
2022-12-19T15:36:04.940Z,100413.63
2022-12-19T15:39:09.760Z,100406.38
2022-12-19T15:42:23.351Z,100413.63
2022-12-19T15:45:28.495Z,100413.41
2022-12-19T15:48:33.360Z,100409.84
2022-12-19T15:51:38.518Z,100406.16
2022-12-19T15:54:51.217Z,100400.44
2022-12-19T15:58:02.928Z,100400.69
2022-12-19T16:01:08.108Z,100395.38
2022-12-19T16:04:16.459Z,100389.03
2022-12-19T16:07:25.456Z,100376.88
2022-12-19T16:10:30.486Z,100366.28
2022-12-19T16:13:38.193Z,100364.34
2022-12-19T16:16:43.515Z,100376.88
2022-12-19T16:19:48.714Z,100386.78
2022-12-19T16:22:53.966Z,100403.97
2022-12-19T16:26:00.105Z,100384.56
2022-12-19T16:29:08.217Z,100387.34
2022-12-19T16:32:14.835Z,100393.00
2022-12-19T16:35:40.182Z,100378.22
2022-12-19T16:38:45.976Z,100377.13
2022-12-19T16:41:50.894Z,100372.78
2022-12-19T16:44:58.418Z,100374.84
2022-12-19T16:48:03.438Z,100370.97
2022-12-19T16:51:08.511Z,100381.94
2022-12-19T16:54:15.851Z,100372.19
2022-12-19T16:57:23.932Z,100374.78
2022-12-19T17:00:31.412Z,100370.81
2022-12-19T17:03:42.009Z,100362.28
2022-12-19T17:06:47.337Z,100349.09
2022-12-19T17:09:52.331Z,100346.34
2022-12-19T17:12:58.557Z,100341.53
2022-12-19T17:16:07.622Z,100348.13
2022-12-19T17:19:18.138Z,100351.16
2022-12-19T17:22:23.587Z,100345.72
2022-12-19T17:25:30.395Z,100341.41
2022-12-19T17:28:35.344Z,100346.69
2022-12-19T17:31:43.339Z,100349.13
2022-12-19T17:34:48.217Z,100356.06
2022-12-19T17:37:55.407Z,100362.31
2022-12-19T17:41:00.523Z,100360.44
2022-12-19T17:44:05.331Z,100355.03
2022-12-19T17:47:16.210Z,100366.44
2022-12-19T17:50:26.721Z,100367.13
2022-12-19T17:53:31.618Z,100367.13
2022-12-19T17:56:36.481Z,100358.97
2022-12-19T17:59:41.934Z,100380.84
2022-12-19T18:02:51.664Z,100375.09
2022-12-19T18:05:58.378Z,100378.34
2022-12-19T18:09:03.813Z,100380.97
2022-12-19T18:12:09.482Z,100383.38
2022-12-19T18:15:14.737Z,100383.97
2022-12-19T18:18:30.594Z,100391.16
2022-12-19T18:21:35.966Z,100385.16
2022-12-19T18:24:40.860Z,100386.63
2022-12-19T18:27:46.033Z,100387.44
2022-12-19T18:30:52.639Z,100391.28
2022-12-19T18:34:07.392Z,100377.22
2022-12-19T18:37:17.382Z,100379.38
2022-12-19T18:40:31.156Z,100382.97
2022-12-19T18:43:36.634Z,100378.19
2022-12-19T18:46:41.711Z,100377.47
2022-12-19T18:49:49.315Z,100355.97
2022-12-19T18:52:56.074Z,100358.22
2022-12-19T18:56:01.022Z,100347.19
2022-12-19T18:59:05.931Z,100353.75
2022-12-19T19:02:27.782Z,100348.38
2022-12-19T19:05:38.697Z,100354.91
2022-12-19T19:08:43.622Z,100359.69
2022-12-19T19:11:48.666Z,100365.66
2022-12-19T19:14:56.711Z,100359.34
2022-12-19T19:18:03.818Z,100373.59
2022-12-19T19:21:14.859Z,100376.03
2022-12-19T19:24:23.757Z,100371.53
2022-12-19T19:27:28.558Z,100370.50
2022-12-19T19:30:34.491Z,100367.69
2022-12-19T19:33:42.700Z,100356.28
2022-12-19T19:36:54.970Z,100359.16
2022-12-19T19:39:59.877Z,100367.81
2022-12-19T19:43:04.777Z,100379.09
2022-12-19T19:46:09.818Z,100376.47
2022-12-19T19:49:15.694Z,100373.94
2022-12-19T19:52:23.301Z,100379.56
2022-12-19T19:55:28.880Z,100381.59
2022-12-19T19:58:34.002Z,100382.88
2022-12-19T20:01:38.971Z,100384.03
2022-12-19T20:04:44.097Z,100379.72
2022-12-19T20:07:51.590Z,100383.56
2022-12-19T20:10:58.215Z,100383.81
2022-12-19T20:14:04.932Z,100379.22
2022-12-19T20:17:09.944Z,100381.13
2022-12-19T20:20:15.945Z,100389.03
2022-12-19T20:23:23.412Z,100384.78
2022-12-19T20:26:28.566Z,100393.13
2022-12-19T20:29:33.388Z,100393.47
2022-12-19T20:32:38.248Z,100396.28
2022-12-19T20:35:43.180Z,100399.41
2022-12-19T20:38:51.815Z,100408.75
2022-12-19T20:41:57.606Z,100399.38
2022-12-19T20:45:02.692Z,100394.66
2022-12-19T20:48:07.828Z,100393.59
2022-12-19T20:51:12.909Z,100390.44
2022-12-19T20:54:20.264Z,100397.19
2022-12-19T20:57:25.207Z,100402.22
2022-12-19T21:00:30.692Z,100389.31
2022-12-19T21:03:35.828Z,100391.44
2022-12-19T21:06:41.512Z,100391.00
2022-12-19T21:09:51.052Z,100398.63
2022-12-19T21:12:56.507Z,100388.53
2022-12-19T21:16:03.487Z,100393.06
2022-12-19T21:19:08.859Z,100383.25
2022-12-19T21:22:13.943Z,100377.75
2022-12-19T21:25:21.947Z,100373.69
2022-12-19T21:28:27.470Z,100369.53
2022-12-19T21:31:33.373Z,100392.06
2022-12-19T21:34:38.391Z,100372.03
2022-12-19T21:37:44.486Z,100383.06
2022-12-19T21:40:52.118Z,100387.16
2022-12-19T21:43:58.040Z,100385.16
2022-12-19T21:47:03.209Z,100397.84
2022-12-19T21:50:09.293Z,100396.44
2022-12-19T21:53:14.232Z,100390.66
2022-12-19T21:56:27.077Z,100388.41
2022-12-19T21:59:32.016Z,100385.16
2022-12-19T22:02:37.703Z,100378.53
2022-12-19T22:05:42.935Z,100379.44
2022-12-19T22:08:48.432Z,100378.53
2022-12-19T22:11:55.871Z,100376.00
2022-12-19T22:15:00.685Z,100374.94
2022-12-19T22:18:05.550Z,100372.28
2022-12-19T22:21:12.075Z,100361.13
2022-12-19T22:24:20.139Z,100360.06
2022-12-19T22:27:28.004Z,100357.91
2022-12-19T22:30:35.987Z,100355.78
2022-12-19T22:33:40.799Z,100358.25
2022-12-19T22:36:47.288Z,100365.06
2022-12-19T22:39:52.069Z,100359.88
2022-12-19T22:42:59.517Z,100363.38
2022-12-19T22:46:04.464Z,100349.44
2022-12-19T22:49:11.203Z,100361.38
2022-12-19T22:52:16.018Z,100355.94
2022-12-19T22:55:21.419Z,100354.50
2022-12-19T22:58:28.846Z,100353.44
2022-12-19T23:01:35.691Z,100369.25
2022-12-19T23:04:40.619Z,100359.09
2022-12-19T23:07:45.602Z,100366.34
2022-12-19T23:10:53.303Z,100365.91
2022-12-19T23:14:01.161Z,100364.03
2022-12-19T23:17:06.068Z,100379.84
2022-12-19T23:20:12.277Z,100376.34
2022-12-19T23:23:17.229Z,100364.31
2022-12-19T23:26:23.982Z,100352.59
2022-12-19T23:29:31.522Z,100353.66
2022-12-19T23:32:36.436Z,100348.47
2022-12-19T23:35:41.339Z,100358.09
2022-12-19T23:38:46.236Z,100337.97
2022-12-19T23:41:51.128Z,100342.97
2022-12-19T23:44:58.779Z,100350.44
2022-12-19T23:48:03.641Z,100340.63
2022-12-19T23:51:11.737Z,100333.16
2022-12-19T23:54:16.809Z,100326.63
2022-12-19T23:57:22.183Z,100341.25
